RJOS(METAR)
05/30 16:00
METAR RJOS 300700Z 19013KT 9999 FEW030 SCT180 BKN210 25/17 Q1017 RMK
1CU030 4AC180 A3006=
戻る
トップページへ戻る
IMOC Co,.Ltd.